createdAt,value
2022-10-21T00:01:36.612Z,13.80
2022-10-21T00:07:36.594Z,14.02
2022-10-21T00:13:36.608Z,14.37
2022-10-21T00:19:36.590Z,13.98
2022-10-21T00:25:36.606Z,13.81
2022-10-21T00:31:36.602Z,13.81
2022-10-21T00:37:36.774Z,13.34
2022-10-21T00:43:36.635Z,13.63
2022-10-21T00:49:36.588Z,13.88
2022-10-21T00:55:36.603Z,13.76
2022-10-21T01:01:36.676Z,13.56
2022-10-21T01:07:40.322Z,13.56
2022-10-21T01:13:36.676Z,13.57
2022-10-21T01:19:36.627Z,13.40
2022-10-21T01:25:36.645Z,13.41
2022-10-21T01:31:36.665Z,13.92
2022-10-21T01:37:37.179Z,12.75
2022-10-21T01:43:36.670Z,13.46
2022-10-21T01:49:36.644Z,12.76
2022-10-21T01:55:36.663Z,13.26
2022-10-21T02:01:36.672Z,13.40
2022-10-21T02:07:36.694Z,13.20
2022-10-21T02:13:36.711Z,12.90
2022-10-21T02:19:36.691Z,12.71
2022-10-21T02:25:36.715Z,12.41
2022-10-21T02:31:36.705Z,12.90
2022-10-21T02:37:36.737Z,12.79
2022-10-21T02:43:36.757Z,13.15
2022-10-21T02:49:36.734Z,12.96
2022-10-21T02:55:36.730Z,13.40
2022-10-21T03:01:37.025Z,12.59
2022-10-21T03:25:36.757Z,13.11
2022-10-21T03:31:36.770Z,12.95
2022-10-21T03:37:36.768Z,12.91
2022-10-21T03:43:36.779Z,12.53
2022-10-21T03:49:36.791Z,12.97
2022-10-21T03:55:36.787Z,12.81
2022-10-21T04:01:36.808Z,13.13
2022-10-21T04:07:36.803Z,12.04
2022-10-21T04:13:36.841Z,11.45
2022-10-21T04:19:36.826Z,12.56
2022-10-21T04:25:36.824Z,12.62
2022-10-21T04:31:36.805Z,11.91
2022-10-21T04:37:36.834Z,12.29
2022-10-21T04:43:36.857Z,12.35
2022-10-21T04:49:36.833Z,12.51
2022-10-21T04:55:36.838Z,12.09
2022-10-21T05:01:36.842Z,12.47
2022-10-21T05:07:36.853Z,12.39
2022-10-21T05:13:36.838Z,12.43
2022-10-21T05:19:36.855Z,11.98
2022-10-21T05:25:36.865Z,12.21
2022-10-21T05:31:36.828Z,11.51
2022-10-21T05:37:36.905Z,12.45
2022-10-21T05:43:36.883Z,12.16
2022-10-21T05:49:36.889Z,12.35
2022-10-21T05:55:36.884Z,12.25
2022-10-21T06:01:36.996Z,11.96
2022-10-21T06:07:37.085Z,12.62
2022-10-21T06:13:36.924Z,12.60
2022-10-21T06:19:36.908Z,12.90
2022-10-21T06:25:36.910Z,13.31
2022-10-21T06:31:36.908Z,13.08
2022-10-21T06:37:37.423Z,13.80
2022-10-21T06:43:36.931Z,13.60
2022-10-21T06:49:36.937Z,13.68
2022-10-21T06:55:36.936Z,14.56
2022-10-21T07:01:55.293Z,13.76
2022-10-21T07:07:37.291Z,14.02
2022-10-21T07:13:37.009Z,14.53
2022-10-21T07:19:36.963Z,14.35
2022-10-21T07:25:36.978Z,14.32
2022-10-21T07:31:36.975Z,15.07
2022-10-21T07:37:37.389Z,14.91
2022-10-21T07:43:37.009Z,14.73
2022-10-21T07:49:36.994Z,15.29
2022-10-21T07:55:36.986Z,14.93
2022-10-21T08:01:37.099Z,15.28
2022-10-21T08:07:36.992Z,15.71
2022-10-21T08:13:37.006Z,16.21
2022-10-21T08:19:36.985Z,15.84
2022-10-21T08:25:37.022Z,16.48
2022-10-21T08:31:37.029Z,16.16
2022-10-21T08:43:37.042Z,16.26
2022-10-21T08:49:37.052Z,15.92
2022-10-21T08:55:37.038Z,15.53
2022-10-21T09:01:37.035Z,15.69
2022-10-21T09:07:37.242Z,15.51
2022-10-21T09:13:37.041Z,15.51
2022-10-21T09:19:37.065Z,16.89
2022-10-21T09:25:37.057Z,16.94
2022-10-21T09:31:37.057Z,16.32
2022-10-21T09:37:37.298Z,17.12
2022-10-21T09:43:37.130Z,17.80
2022-10-21T09:50:05.376Z,17.47
2022-10-21T09:55:37.098Z,18.01
2022-10-21T10:01:37.139Z,17.37
2022-10-21T10:07:37.102Z,17.79
2022-10-21T10:13:37.100Z,18.28
2022-10-21T10:19:37.170Z,18.60
2022-10-21T10:25:37.074Z,19.36
2022-10-21T10:31:37.111Z,18.90
2022-10-21T10:37:37.140Z,18.24
2022-10-21T10:43:37.172Z,16.70
2022-10-21T10:49:37.152Z,16.43
2022-10-21T10:55:37.154Z,16.26
2022-10-21T11:01:37.199Z,16.65
2022-10-21T11:07:37.613Z,17.33
2022-10-21T11:13:40.066Z,18.20
2022-10-21T11:19:37.136Z,18.33
2022-10-21T11:25:37.201Z,18.31
2022-10-21T11:31:43.935Z,17.59
2022-10-21T11:37:37.612Z,17.61
2022-10-21T11:43:37.221Z,18.53
2022-10-21T11:49:37.491Z,18.24
2022-10-21T11:55:37.213Z,18.16
2022-10-21T12:01:37.286Z,18.58
2022-10-21T12:07:37.216Z,18.50
2022-10-21T12:13:37.232Z,18.73
2022-10-21T12:19:37.256Z,19.00
2022-10-21T12:25:37.254Z,18.28
2022-10-21T12:31:37.244Z,18.74
2022-10-21T12:37:37.543Z,17.92
2022-10-21T12:43:37.252Z,18.84
2022-10-21T12:49:37.282Z,18.52
2022-10-21T12:55:37.283Z,17.71
2022-10-21T13:01:37.291Z,18.47
2022-10-21T13:07:37.288Z,18.63
2022-10-21T13:13:37.268Z,18.96
2022-10-21T13:19:37.278Z,17.97
2022-10-21T13:25:37.266Z,17.82
2022-10-21T13:31:37.298Z,18.13
2022-10-21T13:37:37.588Z,17.64
2022-10-21T13:43:37.322Z,18.18
2022-10-21T13:49:37.305Z,17.93
2022-10-21T13:55:37.323Z,18.09
2022-10-21T14:01:37.390Z,17.98
2022-10-21T14:07:37.720Z,17.14
2022-10-21T14:13:37.353Z,17.49
2022-10-21T14:19:37.382Z,16.40
2022-10-21T14:25:37.365Z,17.83
2022-10-21T14:31:37.372Z,17.48
2022-10-21T14:37:37.406Z,17.34
2022-10-21T14:43:37.370Z,17.36
2022-10-21T14:49:37.391Z,17.36
2022-10-21T14:55:37.378Z,17.53
2022-10-21T15:01:37.387Z,17.52
2022-10-21T15:07:37.418Z,17.46
2022-10-21T15:13:37.400Z,17.08
2022-10-21T15:19:37.425Z,16.80
2022-10-21T15:31:37.429Z,16.54
2022-10-21T15:37:37.833Z,16.69
2022-10-21T15:43:37.486Z,16.88
2022-10-21T15:49:37.428Z,16.57
2022-10-21T15:55:37.445Z,16.83
2022-10-21T16:01:37.485Z,16.93
2022-10-21T16:07:37.421Z,16.69
2022-10-21T16:13:37.479Z,16.28
2022-10-21T16:19:37.462Z,16.53
2022-10-21T16:25:37.467Z,16.11
2022-10-21T16:31:37.485Z,15.97
2022-10-21T16:37:37.488Z,16.14
2022-10-21T16:43:37.482Z,15.89
2022-10-21T16:49:37.479Z,15.50
2022-10-21T16:55:37.497Z,15.41
2022-10-21T17:01:37.487Z,15.36
2022-10-21T17:07:38.005Z,15.73
2022-10-21T17:13:37.571Z,15.91
2022-10-21T17:19:37.537Z,16.02
2022-10-21T17:25:37.580Z,15.87
2022-10-21T17:31:37.552Z,15.63
2022-10-21T17:37:37.843Z,15.82
2022-10-21T17:43:37.532Z,15.89
2022-10-21T17:49:37.514Z,15.81
2022-10-21T17:55:37.542Z,15.80
2022-10-21T18:01:37.573Z,15.46
2022-10-21T18:07:37.868Z,15.41
2022-10-21T18:13:37.572Z,15.10
2022-10-21T18:19:37.578Z,15.33
2022-10-21T18:25:37.597Z,15.54
2022-10-21T18:31:37.590Z,15.61
2022-10-21T18:37:38.045Z,15.47
2022-10-21T18:43:37.604Z,15.27
2022-10-21T18:49:37.638Z,15.30
2022-10-21T18:55:37.618Z,15.07
2022-10-21T19:01:37.636Z,15.30
2022-10-21T19:25:37.642Z,15.30
2022-10-21T19:31:38.572Z,15.34
2022-10-21T19:37:37.662Z,15.32
2022-10-21T19:43:37.651Z,15.11
2022-10-21T19:49:37.638Z,14.88
2022-10-21T19:55:37.629Z,15.11
2022-10-21T20:01:37.733Z,14.71
2022-10-21T20:07:37.934Z,15.22
2022-10-21T20:13:37.659Z,15.12
2022-10-21T20:19:37.668Z,15.18
2022-10-21T20:25:37.667Z,15.33
2022-10-21T20:31:37.684Z,15.33
2022-10-21T20:37:38.187Z,15.25
2022-10-21T20:43:37.708Z,15.09
2022-10-21T20:49:37.697Z,15.07
2022-10-21T20:55:37.696Z,14.89
2022-10-21T21:01:41.601Z,14.98
2022-10-21T21:07:38.143Z,14.90
2022-10-21T21:13:41.986Z,14.51
2022-10-21T21:19:37.732Z,14.63
2022-10-21T21:25:37.695Z,14.58
2022-10-21T21:31:37.729Z,13.98
2022-10-21T21:37:37.746Z,13.14
2022-10-21T21:43:37.761Z,13.61
2022-10-21T21:49:37.745Z,13.93
2022-10-21T21:55:37.737Z,13.57
2022-10-21T22:01:37.918Z,14.14
2022-10-21T22:07:37.905Z,14.07
2022-10-21T22:13:37.747Z,14.23
2022-10-21T22:19:37.770Z,13.96
2022-10-21T22:25:37.752Z,13.44
2022-10-21T22:31:37.786Z,13.78
2022-10-21T22:37:38.138Z,13.67
2022-10-21T22:43:37.805Z,13.65
2022-10-21T22:49:37.807Z,13.82
2022-10-21T22:55:37.789Z,13.18
2022-10-21T23:01:37.815Z,12.84
2022-10-21T23:07:37.829Z,12.54
2022-10-21T23:13:37.996Z,12.94
2022-10-21T23:19:37.841Z,13.37
2022-10-21T23:25:37.877Z,13.33
2022-10-21T23:31:37.840Z,12.82
2022-10-21T23:37:38.099Z,12.91
2022-10-21T23:43:37.840Z,12.68
2022-10-21T23:49:37.861Z,12.90
2022-10-21T23:55:37.873Z,12.95
